Kerrick, Minnesota
Current Conditions -  °F | °C
As of 12:14 PM on Wednesday 28 Jan 2015 (Local Time) from KMZH Reporting Station
Overcast Overcast  
Wind Chill: 20°   Ceiling: 1100
Heat Index: 28°   Visibility: 7mi
Dew Point: 23°   Wind: 8mph
Humidity: 80%   Direction: 180°S
Pressure: 29.88"   Gusts: NA
Location:  46.34°N, 92.59°W
Report Text: KMZH 281814Z AUTO 18007KT 132V202 7SM OVC011 M02/M05 A2988 RMK AO2
Loading
Personal Weather Stations






























Interactive Weather Map New forecast layout! Learn more

10-Day Weather Forecast

Advertisements
Track Severe Weather on mobile